KPZQ METAR Reports


Rogers City, Presque Isle County Airport, MI, United States (KPZQ) 45-24-25N 083-48-46W
Jan 29, 2020 - 02:55 PM EST / 2020.01.29 1955 UTC
Wind: from the E (090 degrees) at 6 MPH (5 KT):0
Visibility: 10 mile(s):0
Sky conditions: overcast
Temperature: 26.2 F (-3.2 C)
Windchill: 19 F (-7 C):1
Dew Point: 22.5 F (-5.3 C)
Relative Humidity: 85%
Pressure (altimeter): 30.24 in. Hg (1024 hPa)
ob: KPZQ 291955Z AUTO 09005KT 10SM SCT012 OVC021 M03/M05 A3024 RMK AO2 T10321053
cycle: 20

 

Rogers City METAR Meteogram

Weather Chart

Nearby METAR Reports

KPZQ - Rogers City, Michigan, USA
Distance from station: SSW 1mi, 2km
Updated: Wed, 29-Jan-2020 2:55pm EST
Overcast
Overcast
 Wind from E
Wind: E 6 mph , 9 km/h
Temperature: 27°F , -3°C
Wind Chill: 20°F , -7°C
Dew Point: 23°F , -5°C
Humidity: 86%
Barometer: 30.24 inHg , 1024 hPa
Clouds: Overcast
Visibility: 10 miles , 16 km
Cloud details: Partly cloudy 1200 ft
Overcast 2100 ft
2020/01/29 19:55 KPZQ 291955Z AUTO 09005KT 10SM SCT012 OVC021 M03/M05 A3024 RMK AO2 T10321053
KAPN - Alpena, Michigan, USA
Distance from station: SSE 27mi, 43km
Updated: Wed, 29-Jan-2020 2:54pm EST
Overcast
Overcast
 Wind from S
Wind: S 5 mph , 7 km/h
Temperature: 27°F , -3°C
Wind Chill: 21°F , -6°C
Dew Point: 18°F , -8°C
Humidity: 69%
Barometer: 30.22 inHg , 1023.4 hPa
Clouds: Overcast
Visibility: 10 miles , 16 km
Cloud details: Overcast 2600 ft
2020/01/29 19:54 KAPN 291954Z AUTO 17004KT 10SM OVC026 M03/M08 A3022 RMK AO2 SLP245 T10281078
 
KSLH - Cheboygan, Michigan, USA
Distance from station: WNW 38mi, 61km
Updated: Wed, 29-Jan-2020 2:55pm EST
Overcast
Overcast
 Wind from calm
Wind: Calm
Temperature: 27°F , -3°C
Dew Point: 19°F , -7°C
Humidity: 74%
Barometer: 30.21 inHg , 1023 hPa
Clouds: Overcast
Visibility: 10 miles , 16 km
Cloud details: Overcast 2000 ft
2020/01/29 19:55 KSLH 291955Z AUTO 00000KT 10SM OVC020 M03/M07 A3021 RMK AO2 T10331072
KDRM - Drummond Is, Michigan, USA
Distance from station: N 40mi, 65km
Updated: Wed, 29-Jan-2020 2:55pm EST
Overcast
Overcast
 Wind from calm
Wind: Calm
Temperature: 23°F , -5°C
Dew Point: 16°F , -9°C
Humidity: 74%
Barometer: 30.24 inHg , 1024 hPa
Clouds: Overcast
Visibility: 10 miles , 16 km
Cloud details: Overcast 1600 ft
2020/01/29 19:55 KDRM 291955Z AUTO 00000KT 10SM OVC016 M05/M09 A3024 RMK AO2 T10551091
 
KPLN - Pellston, Michigan, USA
Distance from station: WNW 49mi, 79km
Updated: Wed, 29-Jan-2020 2:54pm EST
Overcast
Overcast
 Wind from calm
Wind: Calm
Temperature: 25°F , -4°C
Dew Point: 19°F , -7°C
Humidity: 80%
Barometer: 30.22 inHg , 1023.4 hPa
Clouds: Overcast
Visibility: 10 miles , 16 km
Cloud details: Overcast 1500 ft
2020/01/29 19:54 KPLN 291954Z AUTO 00000KT 10SM OVC015 M04/M07 A3022 RMK AO2 SLP248 T10391067
KMCD - Mackinac Island, Michigan, USA
Distance from station: NW 50mi, 80km
Updated: Wed, 29-Jan-2020 2:55pm EST
Overcast
Overcast
 Wind from E
Wind: E 5 mph , 7 km/h
Temperature: 23°F , -5°C
Wind Chill: 17°F , -8°C
Dew Point: 23°F , -5°C
Humidity: 100%
Barometer: 30.22 inHg , 1023.4 hPa
Clouds: Overcast
Visibility: 10 miles , 16 km
Cloud details: Overcast 400 ft
2020/01/29 19:55 KMCD 291955Z AUTO 09004KT 10SM OVC004 M05/M05 A3022 RMK AO2 T10521052